Terminal Aerodrome Forecast
Issued by NWS Charleston, WV

Current Version | Previous Version | Graphics & Text | Print | Product List | Glossary On
Versions: 1 2 3 4 5 6 7 8 9 10 11 12 13 14 15 16 17 18 19 20 21
000
FTUS41 KRLX 231127
TAFEKN
TAF
KEKN 231127Z 2312/2412 00000KT 2SM BR BKN002
     FM231230 VRB03KT P6SM SCT250
     FM231800 29007KT P6SM SCT200
     FM240000 00000KT P6SM FEW110
     FM240600 17004KT 6SM BR FEW110
     FM240800 18004KT 4SM BR FEW100=

USA.gov is the U.S. government's official web portal to all federal, state and local government web resources and services.